sensor_id;sensor_type;location;lat;lon;timestamp;temperature;humidity
15926;DHT22;8062;53.882;10.642;2022-08-06T00:00:32;11.40;99.90
15926;DHT22;8062;53.882;10.642;2022-08-06T00:01:33;11.30;99.90
15926;DHT22;8062;53.882;10.642;2022-08-06T00:02:34;11.30;99.90
15926;DHT22;8062;53.882;10.642;2022-08-06T00:03:35;11.30;99.90
15926;DHT22;8062;53.882;10.642;2022-08-06T00:04:36;11.30;99.90
15926;DHT22;8062;53.882;10.642;2022-08-06T00:05:37;11.20;99.90
15926;DHT22;8062;53.882;10.642;2022-08-06T00:06:38;11.20;99.90
15926;DHT22;8062;53.882;10.642;2022-08-06T00:07:39;11.20;99.90
15926;DHT22;8062;53.882;10.642;2022-08-06T00:08:40;11.10;99.90
15926;DHT22;8062;53.882;10.642;2022-08-06T00:09:41;11.10;99.90
15926;DHT22;8062;53.882;10.642;2022-08-06T00:10:43;11.10;99.90
15926;DHT22;8062;53.882;10.642;2022-08-06T00:11:44;11.10;99.90
15926;DHT22;8062;53.882;10.642;2022-08-06T00:12:46;11.10;99.90
15926;DHT22;8062;53.882;10.642;2022-08-06T00:13:47;11.10;99.90
15926;DHT22;8062;53.882;10.642;2022-08-06T00:14:48;11.10;99.90
15926;DHT22;8062;53.882;10.642;2022-08-06T00:15:49;11.00;99.90
15926;DHT22;8062;53.882;10.642;2022-08-06T00:16:50;11.00;99.90
15926;DHT22;8062;53.882;10.642;2022-08-06T00:17:51;11.00;99.90
15926;DHT22;8062;53.882;10.642;2022-08-06T00:18:52;11.00;99.90
15926;DHT22;8062;53.882;10.642;2022-08-06T00:19:53;11.00;99.90
15926;DHT22;8062;53.882;10.642;2022-08-06T00:20:54;11.00;99.90
15926;DHT22;8062;53.882;10.642;2022-08-06T00:21:55;10.90;99.90
15926;DHT22;8062;53.882;10.642;2022-08-06T00:22:58;10.90;99.90
15926;DHT22;8062;53.882;10.642;2022-08-06T00:23:59;11.00;99.90
15926;DHT22;8062;53.882;10.642;2022-08-06T00:25:00;10.90;99.90
15926;DHT22;8062;53.882;10.642;2022-08-06T00:26:01;10.90;99.90
15926;DHT22;8062;53.882;10.642;2022-08-06T00:27:02;10.90;99.90
15926;DHT22;8062;53.882;10.642;2022-08-06T00:28:03;10.90;99.90
15926;DHT22;8062;53.882;10.642;2022-08-06T00:29:05;10.90;99.90
15926;DHT22;8062;53.882;10.642;2022-08-06T00:30:08;10.90;99.90
15926;DHT22;8062;53.882;10.642;2022-08-06T00:31:09;10.80;99.90
15926;DHT22;8062;53.882;10.642;2022-08-06T00:32:10;10.80;99.90
15926;DHT22;8062;53.882;10.642;2022-08-06T00:33:11;10.80;99.90
15926;DHT22;8062;53.882;10.642;2022-08-06T00:34:12;10.80;99.90
15926;DHT22;8062;53.882;10.642;2022-08-06T00:35:13;10.80;99.90
15926;DHT22;8062;53.882;10.642;2022-08-06T00:36:14;10.80;99.90
15926;DHT22;8062;53.882;10.642;2022-08-06T00:37:16;10.80;99.90
15926;DHT22;8062;53.882;10.642;2022-08-06T00:38:17;10.80;99.90
15926;DHT22;8062;53.882;10.642;2022-08-06T00:39:18;10.80;99.90
15926;DHT22;8062;53.882;10.642;2022-08-06T00:40:20;10.80;99.90
15926;DHT22;8062;53.882;10.642;2022-08-06T00:41:22;10.80;99.90
15926;DHT22;8062;53.882;10.642;2022-08-06T00:42:25;10.80;99.90
15926;DHT22;8062;53.882;10.642;2022-08-06T00:43:26;10.80;99.90
15926;DHT22;8062;53.882;10.642;2022-08-06T00:44:28;10.80;99.90
15926;DHT22;8062;53.882;10.642;2022-08-06T00:45:30;10.80;99.90
15926;DHT22;8062;53.882;10.642;2022-08-06T00:46:31;10.90;99.90
15926;DHT22;8062;53.882;10.642;2022-08-06T00:47:32;10.90;99.90
15926;DHT22;8062;53.882;10.642;2022-08-06T00:48:33;10.80;99.90
15926;DHT22;8062;53.882;10.642;2022-08-06T00:49:34;10.80;99.90
15926;DHT22;8062;53.882;10.642;2022-08-06T00:50:35;10.80;99.90
15926;DHT22;8062;53.882;10.642;2022-08-06T00:51:36;10.80;99.90
15926;DHT22;8062;53.882;10.642;2022-08-06T00:52:37;10.80;99.90
15926;DHT22;8062;53.882;10.642;2022-08-06T00:53:39;10.80;99.90
15926;DHT22;8062;53.882;10.642;2022-08-06T00:54:40;10.80;99.90
15926;DHT22;8062;53.882;10.642;2022-08-06T00:55:41;10.70;99.90
15926;DHT22;8062;53.882;10.642;2022-08-06T00:56:42;10.70;99.90
15926;DHT22;8062;53.882;10.642;2022-08-06T00:57:43;10.70;99.90
15926;DHT22;8062;53.882;10.642;2022-08-06T00:58:44;10.70;99.90
15926;DHT22;8062;53.882;10.642;2022-08-06T00:59:45;10.70;99.90
15926;DHT22;8062;53.882;10.642;2022-08-06T01:00:46;10.70;99.90
15926;DHT22;8062;53.882;10.642;2022-08-06T01:01:47;10.70;99.90
15926;DHT22;8062;53.882;10.642;2022-08-06T01:02:49;10.60;99.90
15926;DHT22;8062;53.882;10.642;2022-08-06T01:03:50;10.60;99.90
15926;DHT22;8062;53.882;10.642;2022-08-06T01:04:51;10.60;99.90
15926;DHT22;8062;53.882;10.642;2022-08-06T01:05:52;10.60;99.90
15926;DHT22;8062;53.882;10.642;2022-08-06T01:06:53;10.60;99.90
15926;DHT22;8062;53.882;10.642;2022-08-06T01:07:54;10.60;99.90
15926;DHT22;8062;53.882;10.642;2022-08-06T01:08:56;10.60;99.90
15926;DHT22;8062;53.882;10.642;2022-08-06T01:09:57;10.60;99.90
15926;DHT22;8062;53.882;10.642;2022-08-06T01:10:58;10.70;99.90
15926;DHT22;8062;53.882;10.642;2022-08-06T01:11:59;10.70;99.90
15926;DHT22;8062;53.882;10.642;2022-08-06T01:13:00;10.70;99.90
15926;DHT22;8062;53.882;10.642;2022-08-06T01:14:01;10.70;99.90
15926;DHT22;8062;53.882;10.642;2022-08-06T01:15:04;10.70;99.90
15926;DHT22;8062;53.882;10.642;2022-08-06T01:16:18;10.70;99.90
15926;DHT22;8062;53.882;10.642;2022-08-06T01:17:34;10.60;99.90
15926;DHT22;8062;53.882;10.642;2022-08-06T01:22:00;10.60;99.90
15926;DHT22;8062;53.882;10.642;2022-08-06T01:24:53;10.50;99.90
15926;DHT22;8062;53.882;10.642;2022-08-06T01:28:45;10.50;99.90
15926;DHT22;8062;53.882;10.642;2022-08-06T01:29:51;10.50;99.90
15926;DHT22;8062;53.882;10.642;2022-08-06T01:31:06;10.50;99.90
15926;DHT22;8062;53.882;10.642;2022-08-06T01:32:15;10.50;99.90
15926;DHT22;8062;53.882;10.642;2022-08-06T01:33:27;10.50;99.90
15926;DHT22;8062;53.882;10.642;2022-08-06T01:35:35;10.50;99.90
15926;DHT22;8062;53.882;10.642;2022-08-06T01:36:42;10.50;99.90
15926;DHT22;8062;53.882;10.642;2022-08-06T01:37:53;10.60;99.90
15926;DHT22;8062;53.882;10.642;2022-08-06T01:38:59;10.60;99.90
15926;DHT22;8062;53.882;10.642;2022-08-06T01:40:06;10.60;99.90
15926;DHT22;8062;53.882;10.642;2022-08-06T01:41:10;10.60;99.90
15926;DHT22;8062;53.882;10.642;2022-08-06T01:42:12;10.50;99.90
15926;DHT22;8062;53.882;10.642;2022-08-06T01:43:16;10.50;99.90
15926;DHT22;8062;53.882;10.642;2022-08-06T01:44:20;10.50;99.90
15926;DHT22;8062;53.882;10.642;2022-08-06T01:45:26;10.50;99.90
15926;DHT22;8062;53.882;10.642;2022-08-06T01:46:28;10.50;99.90
15926;DHT22;8062;53.882;10.642;2022-08-06T01:47:32;10.50;99.90
15926;DHT22;8062;53.882;10.642;2022-08-06T01:48:36;10.40;99.90
15926;DHT22;8062;53.882;10.642;2022-08-06T01:49:41;10.40;99.90
15926;DHT22;8062;53.882;10.642;2022-08-06T01:50:45;10.40;99.90
15926;DHT22;8062;53.882;10.642;2022-08-06T01:51:51;10.40;99.90
15926;DHT22;8062;53.882;10.642;2022-08-06T01:52:53;10.40;99.90
15926;DHT22;8062;53.882;10.642;2022-08-06T01:53:56;10.40;99.90
15926;DHT22;8062;53.882;10.642;2022-08-06T01:54:58;10.40;99.90
15926;DHT22;8062;53.882;10.642;2022-08-06T01:56:01;10.40;99.90
15926;DHT22;8062;53.882;10.642;2022-08-06T01:57:03;10.40;99.90
15926;DHT22;8062;53.882;10.642;2022-08-06T01:58:06;10.30;99.90
15926;DHT22;8062;53.882;10.642;2022-08-06T01:59:07;10.30;99.90
15926;DHT22;8062;53.882;10.642;2022-08-06T02:00:09;10.30;99.90
15926;DHT22;8062;53.882;10.642;2022-08-06T02:01:17;10.30;99.90
15926;DHT22;8062;53.882;10.642;2022-08-06T02:02:24;10.40;99.90
15926;DHT22;8062;53.882;10.642;2022-08-06T02:03:49;10.30;99.90
15926;DHT22;8062;53.882;10.642;2022-08-06T02:04:55;10.30;99.90
15926;DHT22;8062;53.882;10.642;2022-08-06T02:05:58;10.30;99.90
15926;DHT22;8062;53.882;10.642;2022-08-06T02:07:03;10.30;99.90
15926;DHT22;8062;53.882;10.642;2022-08-06T02:08:07;10.30;99.90
15926;DHT22;8062;53.882;10.642;2022-08-06T02:09:13;10.40;99.90
15926;DHT22;8062;53.882;10.642;2022-08-06T02:10:17;10.30;99.90
15926;DHT22;8062;53.882;10.642;2022-08-06T02:11:19;10.30;99.90
15926;DHT22;8062;53.882;10.642;2022-08-06T02:12:24;10.30;99.90
15926;DHT22;8062;53.882;10.642;2022-08-06T02:13:27;10.30;99.90
15926;DHT22;8062;53.882;10.642;2022-08-06T02:14:30;10.30;99.90
15926;DHT22;8062;53.882;10.642;2022-08-06T02:15:35;10.30;99.90
15926;DHT22;8062;53.882;10.642;2022-08-06T02:16:39;10.30;99.90
15926;DHT22;8062;53.882;10.642;2022-08-06T02:17:46;10.30;99.90
15926;DHT22;8062;53.882;10.642;2022-08-06T02:18:49;10.30;99.90
15926;DHT22;8062;53.882;10.642;2022-08-06T02:19:53;10.20;99.90
15926;DHT22;8062;53.882;10.642;2022-08-06T02:20:57;10.20;99.90
15926;DHT22;8062;53.882;10.642;2022-08-06T02:22:01;10.20;99.90
15926;DHT22;8062;53.882;10.642;2022-08-06T02:23:07;10.20;99.90
15926;DHT22;8062;53.882;10.642;2022-08-06T02:24:10;10.10;99.90
15926;DHT22;8062;53.882;10.642;2022-08-06T02:25:13;10.20;99.90
15926;DHT22;8062;53.882;10.642;2022-08-06T02:26:17;10.10;99.90
15926;DHT22;8062;53.882;10.642;2022-08-06T02:27:19;10.10;99.90
15926;DHT22;8062;53.882;10.642;2022-08-06T02:28:23;10.10;99.90
15926;DHT22;8062;53.882;10.642;2022-08-06T02:29:25;10.10;99.90
15926;DHT22;8062;53.882;10.642;2022-08-06T02:30:31;10.10;99.90
15926;DHT22;8062;53.882;10.642;2022-08-06T02:31:33;10.10;99.90
15926;DHT22;8062;53.882;10.642;2022-08-06T02:32:34;10.10;99.90
15926;DHT22;8062;53.882;10.642;2022-08-06T02:33:36;10.10;99.90
15926;DHT22;8062;53.882;10.642;2022-08-06T02:34:37;10.00;99.90
15926;DHT22;8062;53.882;10.642;2022-08-06T02:36:34;10.00;99.90
15926;DHT22;8062;53.882;10.642;2022-08-06T02:37:26;10.00;99.90
15926;DHT22;8062;53.882;10.642;2022-08-06T02:40:19;10.00;99.90
15926;DHT22;8062;53.882;10.642;2022-08-06T02:41:10;10.00;99.90
15926;DHT22;8062;53.882;10.642;2022-08-06T02:42:19;9.90;99.90
15926;DHT22;8062;53.882;10.642;2022-08-06T02:43:35;9.90;99.90
15926;DHT22;8062;53.882;10.642;2022-08-06T02:45:02;9.90;99.90
15926;DHT22;8062;53.882;10.642;2022-08-06T02:46:12;9.90;99.90
15926;DHT22;8062;53.882;10.642;2022-08-06T02:47:20;9.90;99.90
15926;DHT22;8062;53.882;10.642;2022-08-06T02:48:28;9.90;99.90
15926;DHT22;8062;53.882;10.642;2022-08-06T02:49:33;9.90;99.90
15926;DHT22;8062;53.882;10.642;2022-08-06T02:50:43;9.90;99.90
15926;DHT22;8062;53.882;10.642;2022-08-06T02:51:51;9.90;99.90
15926;DHT22;8062;53.882;10.642;2022-08-06T02:52:59;9.90;99.90
15926;DHT22;8062;53.882;10.642;2022-08-06T02:54:07;9.90;99.90
15926;DHT22;8062;53.882;10.642;2022-08-06T02:55:13;9.90;99.90
15926;DHT22;8062;53.882;10.642;2022-08-06T02:56:16;9.90;99.90
15926;DHT22;8062;53.882;10.642;2022-08-06T02:57:28;9.90;99.90
15926;DHT22;8062;53.882;10.642;2022-08-06T02:58:39;9.90;99.90
15926;DHT22;8062;53.882;10.642;2022-08-06T02:59:45;9.90;99.90
15926;DHT22;8062;53.882;10.642;2022-08-06T03:00:50;9.90;99.90
15926;DHT22;8062;53.882;10.642;2022-08-06T03:01:57;9.90;99.90
15926;DHT22;8062;53.882;10.642;2022-08-06T03:03:01;9.90;99.90
15926;DHT22;8062;53.882;10.642;2022-08-06T03:04:04;9.90;99.90
15926;DHT22;8062;53.882;10.642;2022-08-06T03:05:09;9.80;99.90
15926;DHT22;8062;53.882;10.642;2022-08-06T03:06:15;9.80;99.90
15926;DHT22;8062;53.882;10.642;2022-08-06T03:07:18;9.80;99.90
15926;DHT22;8062;53.882;10.642;2022-08-06T03:08:22;9.80;99.90
15926;DHT22;8062;53.882;10.642;2022-08-06T03:09:24;9.80;99.90
15926;DHT22;8062;53.882;10.642;2022-08-06T03:10:25;9.80;99.90
15926;DHT22;8062;53.882;10.642;2022-08-06T03:11:30;9.80;99.90
15926;DHT22;8062;53.882;10.642;2022-08-06T03:12:33;9.80;99.90
15926;DHT22;8062;53.882;10.642;2022-08-06T03:13:37;9.80;99.90
15926;DHT22;8062;53.882;10.642;2022-08-06T03:14:39;9.80;99.90
15926;DHT22;8062;53.882;10.642;2022-08-06T03:15:42;9.70;99.90
15926;DHT22;8062;53.882;10.642;2022-08-06T03:16:44;9.70;99.90
15926;DHT22;8062;53.882;10.642;2022-08-06T03:17:46;9.80;99.90
15926;DHT22;8062;53.882;10.642;2022-08-06T03:18:49;9.70;99.90
15926;DHT22;8062;53.882;10.642;2022-08-06T03:19:51;9.70;99.90
15926;DHT22;8062;53.882;10.642;2022-08-06T03:20:54;9.70;99.90
15926;DHT22;8062;53.882;10.642;2022-08-06T03:21:56;9.70;99.90
15926;DHT22;8062;53.882;10.642;2022-08-06T03:23:00;9.70;99.90
15926;DHT22;8062;53.882;10.642;2022-08-06T03:24:02;9.70;99.90
15926;DHT22;8062;53.882;10.642;2022-08-06T03:25:05;9.70;99.90
15926;DHT22;8062;53.882;10.642;2022-08-06T03:26:08;9.60;99.90
15926;DHT22;8062;53.882;10.642;2022-08-06T03:27:15;9.60;99.90
15926;DHT22;8062;53.882;10.642;2022-08-06T03:28:18;9.60;99.90
15926;DHT22;8062;53.882;10.642;2022-08-06T03:29:20;9.60;99.90
15926;DHT22;8062;53.882;10.642;2022-08-06T03:30:22;9.60;99.90
15926;DHT22;8062;53.882;10.642;2022-08-06T03:31:24;9.60;99.90
15926;DHT22;8062;53.882;10.642;2022-08-06T03:32:25;9.60;99.90
15926;DHT22;8062;53.882;10.642;2022-08-06T03:33:27;9.60;99.90
15926;DHT22;8062;53.882;10.642;2022-08-06T03:34:29;9.60;99.90
15926;DHT22;8062;53.882;10.642;2022-08-06T03:35:34;9.60;99.90
15926;DHT22;8062;53.882;10.642;2022-08-06T03:36:35;9.60;99.90
15926;DHT22;8062;53.882;10.642;2022-08-06T03:37:37;9.60;99.90
15926;DHT22;8062;53.882;10.642;2022-08-06T03:38:43;9.60;99.90
15926;DHT22;8062;53.882;10.642;2022-08-06T03:39:46;9.60;99.90
15926;DHT22;8062;53.882;10.642;2022-08-06T03:40:49;9.60;99.90
15926;DHT22;8062;53.882;10.642;2022-08-06T03:41:52;9.60;99.90
15926;DHT22;8062;53.882;10.642;2022-08-06T03:42:53;9.60;99.90
15926;DHT22;8062;53.882;10.642;2022-08-06T03:43:54;9.60;99.90
15926;DHT22;8062;53.882;10.642;2022-08-06T03:44:56;9.60;99.90
15926;DHT22;8062;53.882;10.642;2022-08-06T03:46:00;9.50;99.90
15926;DHT22;8062;53.882;10.642;2022-08-06T03:47:22;9.60;99.90
15926;DHT22;8062;53.882;10.642;2022-08-06T03:48:29;9.60;99.90
15926;DHT22;8062;53.882;10.642;2022-08-06T03:49:45;9.60;99.90
15926;DHT22;8062;53.882;10.642;2022-08-06T03:50:49;9.50;99.90
15926;DHT22;8062;53.882;10.642;2022-08-06T03:51:53;9.60;99.90
15926;DHT22;8062;53.882;10.642;2022-08-06T03:53:03;9.60;99.90
15926;DHT22;8062;53.882;10.642;2022-08-06T03:54:07;9.60;99.90
15926;DHT22;8062;53.882;10.642;2022-08-06T03:55:12;9.60;99.90
15926;DHT22;8062;53.882;10.642;2022-08-06T03:56:18;9.60;99.90
15926;DHT22;8062;53.882;10.642;2022-08-06T03:57:30;9.50;99.90
15926;DHT22;8062;53.882;10.642;2022-08-06T03:58:33;9.50;99.90
15926;DHT22;8062;53.882;10.642;2022-08-06T03:59:41;9.60;99.90
15926;DHT22;8062;53.882;10.642;2022-08-06T04:00:59;9.50;99.90
15926;DHT22;8062;53.882;10.642;2022-08-06T04:02:03;9.60;99.90
15926;DHT22;8062;53.882;10.642;2022-08-06T04:03:05;9.50;99.90
15926;DHT22;8062;53.882;10.642;2022-08-06T04:04:09;9.60;99.90
15926;DHT22;8062;53.882;10.642;2022-08-06T04:05:13;9.60;99.90
15926;DHT22;8062;53.882;10.642;2022-08-06T04:06:17;9.50;99.90
15926;DHT22;8062;53.882;10.642;2022-08-06T04:07:18;9.60;99.90
15926;DHT22;8062;53.882;10.642;2022-08-06T04:08:19;9.60;99.90
15926;DHT22;8062;53.882;10.642;2022-08-06T04:09:21;9.60;99.90
15926;DHT22;8062;53.882;10.642;2022-08-06T04:10:26;9.60;99.90
15926;DHT22;8062;53.882;10.642;2022-08-06T04:11:27;9.60;99.90
15926;DHT22;8062;53.882;10.642;2022-08-06T04:12:30;9.60;99.90
15926;DHT22;8062;53.882;10.642;2022-08-06T04:13:32;9.60;99.90
15926;DHT22;8062;53.882;10.642;2022-08-06T04:14:33;9.60;99.90
15926;DHT22;8062;53.882;10.642;2022-08-06T04:15:39;9.60;99.90
15926;DHT22;8062;53.882;10.642;2022-08-06T04:16:40;9.60;99.90
15926;DHT22;8062;53.882;10.642;2022-08-06T04:17:44;9.60;99.90
15926;DHT22;8062;53.882;10.642;2022-08-06T04:18:47;9.60;99.90
15926;DHT22;8062;53.882;10.642;2022-08-06T04:19:49;9.60;99.90
15926;DHT22;8062;53.882;10.642;2022-08-06T04:20:55;9.60;99.90
15926;DHT22;8062;53.882;10.642;2022-08-06T04:21:57;9.60;99.90
15926;DHT22;8062;53.882;10.642;2022-08-06T04:22:58;9.60;99.90
15926;DHT22;8062;53.882;10.642;2022-08-06T04:23:59;9.60;99.90
15926;DHT22;8062;53.882;10.642;2022-08-06T04:25:01;9.60;99.90
15926;DHT22;8062;53.882;10.642;2022-08-06T04:26:04;9.60;99.90
15926;DHT22;8062;53.882;10.642;2022-08-06T04:27:07;9.60;99.90
15926;DHT22;8062;53.882;10.642;2022-08-06T04:28:09;9.60;99.90
15926;DHT22;8062;53.882;10.642;2022-08-06T04:29:13;9.60;99.90
15926;DHT22;8062;53.882;10.642;2022-08-06T04:30:16;9.70;99.90
15926;DHT22;8062;53.882;10.642;2022-08-06T04:31:18;9.70;99.90
15926;DHT22;8062;53.882;10.642;2022-08-06T04:32:22;9.60;99.90
15926;DHT22;8062;53.882;10.642;2022-08-06T04:33:25;9.60;99.90
15926;DHT22;8062;53.882;10.642;2022-08-06T04:34:28;9.60;99.90
15926;DHT22;8062;53.882;10.642;2022-08-06T04:35:30;9.60;99.90
15926;DHT22;8062;53.882;10.642;2022-08-06T04:36:31;9.60;99.90
15926;DHT22;8062;53.882;10.642;2022-08-06T04:37:33;9.60;99.90
15926;DHT22;8062;53.882;10.642;2022-08-06T04:38:34;9.60;99.90
15926;DHT22;8062;53.882;10.642;2022-08-06T04:39:35;9.60;99.90
15926;DHT22;8062;53.882;10.642;2022-08-06T04:40:38;9.60;99.90
15926;DHT22;8062;53.882;10.642;2022-08-06T04:41:39;9.60;99.90
15926;DHT22;8062;53.882;10.642;2022-08-06T04:42:40;9.60;99.90
15926;DHT22;8062;53.882;10.642;2022-08-06T04:43:41;9.60;99.90
15926;DHT22;8062;53.882;10.642;2022-08-06T04:44:43;9.70;99.90
15926;DHT22;8062;53.882;10.642;2022-08-06T04:45:44;9.70;99.90
15926;DHT22;8062;53.882;10.642;2022-08-06T04:46:46;9.70;99.90
15926;DHT22;8062;53.882;10.642;2022-08-06T04:47:51;9.70;99.90
15926;DHT22;8062;53.882;10.642;2022-08-06T04:48:53;9.70;99.90
15926;DHT22;8062;53.882;10.642;2022-08-06T04:49:54;9.70;99.90
15926;DHT22;8062;53.882;10.642;2022-08-06T04:50:55;9.70;99.90
15926;DHT22;8062;53.882;10.642;2022-08-06T04:51:57;9.70;99.90
15926;DHT22;8062;53.882;10.642;2022-08-06T04:53:12;9.70;99.90
15926;DHT22;8062;53.882;10.642;2022-08-06T04:54:15;9.70;99.90
15926;DHT22;8062;53.882;10.642;2022-08-06T04:55:20;9.70;99.90
15926;DHT22;8062;53.882;10.642;2022-08-06T04:56:21;9.70;99.90
15926;DHT22;8062;53.882;10.642;2022-08-06T04:57:22;9.70;99.90
15926;DHT22;8062;53.882;10.642;2022-08-06T04:58:23;9.70;99.90
15926;DHT22;8062;53.882;10.642;2022-08-06T04:59:25;9.70;99.90
15926;DHT22;8062;53.882;10.642;2022-08-06T05:00:26;9.80;99.90
15926;DHT22;8062;53.882;10.642;2022-08-06T05:01:27;9.80;99.90
15926;DHT22;8062;53.882;10.642;2022-08-06T05:02:28;9.90;99.90
15926;DHT22;8062;53.882;10.642;2022-08-06T05:03:29;9.90;99.90
15926;DHT22;8062;53.882;10.642;2022-08-06T05:04:32;9.90;99.90
15926;DHT22;8062;53.882;10.642;2022-08-06T05:05:38;9.90;99.90
15926;DHT22;8062;53.882;10.642;2022-08-06T05:06:44;9.90;99.90
15926;DHT22;8062;53.882;10.642;2022-08-06T05:07:47;10.00;99.90
15926;DHT22;8062;53.882;10.642;2022-08-06T05:08:53;10.00;99.90
15926;DHT22;8062;53.882;10.642;2022-08-06T05:09:56;10.10;99.90
15926;DHT22;8062;53.882;10.642;2022-08-06T05:11:05;10.20;99.90
15926;DHT22;8062;53.882;10.642;2022-08-06T05:13:13;10.30;99.90
15926;DHT22;8062;53.882;10.642;2022-08-06T05:14:19;10.40;99.90
15926;DHT22;8062;53.882;10.642;2022-08-06T05:15:26;10.40;99.90
15926;DHT22;8062;53.882;10.642;2022-08-06T05:16:32;10.50;99.90
15926;DHT22;8062;53.882;10.642;2022-08-06T05:17:40;10.60;99.90
15926;DHT22;8062;53.882;10.642;2022-08-06T05:19:02;10.60;99.90
15926;DHT22;8062;53.882;10.642;2022-08-06T05:20:11;10.70;99.90
15926;DHT22;8062;53.882;10.642;2022-08-06T05:21:18;10.70;99.90
15926;DHT22;8062;53.882;10.642;2022-08-06T05:22:22;10.70;99.90
15926;DHT22;8062;53.882;10.642;2022-08-06T05:23:27;10.80;99.90
15926;DHT22;8062;53.882;10.642;2022-08-06T05:24:30;10.90;99.90
15926;DHT22;8062;53.882;10.642;2022-08-06T05:25:32;10.90;99.90
15926;DHT22;8062;53.882;10.642;2022-08-06T05:26:33;11.00;99.90
15926;DHT22;8062;53.882;10.642;2022-08-06T05:27:35;11.00;99.90
15926;DHT22;8062;53.882;10.642;2022-08-06T05:28:39;11.10;99.90
15926;DHT22;8062;53.882;10.642;2022-08-06T05:29:41;11.20;99.90
15926;DHT22;8062;53.882;10.642;2022-08-06T05:30:47;11.20;99.90
15926;DHT22;8062;53.882;10.642;2022-08-06T05:31:48;11.30;99.90
15926;DHT22;8062;53.882;10.642;2022-08-06T05:32:50;11.40;99.90
15926;DHT22;8062;53.882;10.642;2022-08-06T05:33:51;11.50;99.90
15926;DHT22;8062;53.882;10.642;2022-08-06T05:34:52;11.70;99.90
15926;DHT22;8062;53.882;10.642;2022-08-06T05:35:54;11.70;99.90
15926;DHT22;8062;53.882;10.642;2022-08-06T05:36:55;11.80;99.90
15926;DHT22;8062;53.882;10.642;2022-08-06T05:37:56;11.90;99.90
15926;DHT22;8062;53.882;10.642;2022-08-06T05:38:57;12.00;99.90
15926;DHT22;8062;53.882;10.642;2022-08-06T05:39:58;12.10;99.90
15926;DHT22;8062;53.882;10.642;2022-08-06T05:40:59;12.10;99.90
15926;DHT22;8062;53.882;10.642;2022-08-06T05:42:00;12.20;99.90
15926;DHT22;8062;53.882;10.642;2022-08-06T05:43:01;12.30;99.90
15926;DHT22;8062;53.882;10.642;2022-08-06T05:44:02;12.30;99.90
15926;DHT22;8062;53.882;10.642;2022-08-06T05:45:04;12.40;99.90
15926;DHT22;8062;53.882;10.642;2022-08-06T05:46:11;12.50;99.90
15926;DHT22;8062;53.882;10.642;2022-08-06T05:47:15;12.60;99.90
15926;DHT22;8062;53.882;10.642;2022-08-06T05:48:20;12.70;99.90
15926;DHT22;8062;53.882;10.642;2022-08-06T05:49:27;12.70;99.90
15926;DHT22;8062;53.882;10.642;2022-08-06T05:50:31;12.80;99.90
15926;DHT22;8062;53.882;10.642;2022-08-06T05:53:09;13.00;99.90
15926;DHT22;8062;53.882;10.642;2022-08-06T05:54:21;13.20;99.90
15926;DHT22;8062;53.882;10.642;2022-08-06T05:55:32;13.20;99.90
15926;DHT22;8062;53.882;10.642;2022-08-06T05:56:40;13.30;99.90
15926;DHT22;8062;53.882;10.642;2022-08-06T05:57:51;13.40;99.90
15926;DHT22;8062;53.882;10.642;2022-08-06T05:58:57;13.50;99.90
15926;DHT22;8062;53.882;10.642;2022-08-06T06:00:13;13.50;99.90
15926;DHT22;8062;53.882;10.642;2022-08-06T06:01:15;13.60;99.90
15926;DHT22;8062;53.882;10.642;2022-08-06T06:02:18;13.60;99.90
15926;DHT22;8062;53.882;10.642;2022-08-06T06:03:19;13.70;99.90
15926;DHT22;8062;53.882;10.642;2022-08-06T06:04:24;13.80;99.90
15926;DHT22;8062;53.882;10.642;2022-08-06T06:05:26;13.80;99.90
15926;DHT22;8062;53.882;10.642;2022-08-06T06:06:28;13.90;99.90
15926;DHT22;8062;53.882;10.642;2022-08-06T06:07:29;14.00;99.90
15926;DHT22;8062;53.882;10.642;2022-08-06T06:08:30;14.10;99.90
15926;DHT22;8062;53.882;10.642;2022-08-06T06:09:32;14.10;99.90
15926;DHT22;8062;53.882;10.642;2022-08-06T06:10:34;14.10;99.90
15926;DHT22;8062;53.882;10.642;2022-08-06T06:11:37;14.20;99.90
15926;DHT22;8062;53.882;10.642;2022-08-06T06:12:39;14.20;99.90
15926;DHT22;8062;53.882;10.642;2022-08-06T06:13:41;14.30;99.90
15926;DHT22;8062;53.882;10.642;2022-08-06T06:14:45;14.40;99.90
15926;DHT22;8062;53.882;10.642;2022-08-06T06:15:59;14.40;99.90
15926;DHT22;8062;53.882;10.642;2022-08-06T06:18:35;14.60;99.90
15926;DHT22;8062;53.882;10.642;2022-08-06T06:21:26;14.80;99.90
15926;DHT22;8062;53.882;10.642;2022-08-06T06:26:12;14.90;99.90
15926;DHT22;8062;53.882;10.642;2022-08-06T06:27:33;14.90;99.90
15926;DHT22;8062;53.882;10.642;2022-08-06T06:31:16;15.00;99.90
15926;DHT22;8062;53.882;10.642;2022-08-06T06:33:58;15.10;99.90
15926;DHT22;8062;53.882;10.642;2022-08-06T06:35:25;15.20;99.90
15926;DHT22;8062;53.882;10.642;2022-08-06T06:36:35;15.20;99.90
15926;DHT22;8062;53.882;10.642;2022-08-06T06:39:04;15.40;99.90
15926;DHT22;8062;53.882;10.642;2022-08-06T06:41:47;15.50;99.90
15926;DHT22;8062;53.882;10.642;2022-08-06T06:43:08;15.60;99.90
15926;DHT22;8062;53.882;10.642;2022-08-06T06:44:34;15.60;99.90
15926;DHT22;8062;53.882;10.642;2022-08-06T06:45:54;15.70;99.90
15926;DHT22;8062;53.882;10.642;2022-08-06T06:47:39;15.90;99.90
15926;DHT22;8062;53.882;10.642;2022-08-06T06:48:29;15.90;99.90
15926;DHT22;8062;53.882;10.642;2022-08-06T06:49:42;15.90;99.90
15926;DHT22;8062;53.882;10.642;2022-08-06T06:50:48;16.00;99.90
15926;DHT22;8062;53.882;10.642;2022-08-06T06:51:54;16.10;99.90
15926;DHT22;8062;53.882;10.642;2022-08-06T06:52:56;16.10;99.90
15926;DHT22;8062;53.882;10.642;2022-08-06T06:53:58;16.10;99.90
15926;DHT22;8062;53.882;10.642;2022-08-06T06:55:30;16.20;99.90
15926;DHT22;8062;53.882;10.642;2022-08-06T06:56:39;16.20;99.90
15926;DHT22;8062;53.882;10.642;2022-08-06T06:57:46;16.30;99.90
15926;DHT22;8062;53.882;10.642;2022-08-06T06:58:58;16.40;99.90
15926;DHT22;8062;53.882;10.642;2022-08-06T07:00:03;16.50;99.90
15926;DHT22;8062;53.882;10.642;2022-08-06T07:01:07;16.50;99.90
15926;DHT22;8062;53.882;10.642;2022-08-06T07:02:14;16.60;99.90
15926;DHT22;8062;53.882;10.642;2022-08-06T07:03:18;16.70;99.90
15926;DHT22;8062;53.882;10.642;2022-08-06T07:04:21;17.00;99.90
15926;DHT22;8062;53.882;10.642;2022-08-06T07:05:24;17.10;99.90
15926;DHT22;8062;53.882;10.642;2022-08-06T07:06:26;17.30;99.90
15926;DHT22;8062;53.882;10.642;2022-08-06T07:07:33;17.30;99.90
15926;DHT22;8062;53.882;10.642;2022-08-06T07:08:41;17.40;99.90
15926;DHT22;8062;53.882;10.642;2022-08-06T07:09:46;17.40;99.90
15926;DHT22;8062;53.882;10.642;2022-08-06T07:10:49;17.50;99.90
15926;DHT22;8062;53.882;10.642;2022-08-06T07:11:52;17.70;99.90
15926;DHT22;8062;53.882;10.642;2022-08-06T07:12:55;17.80;99.90
15926;DHT22;8062;53.882;10.642;2022-08-06T07:13:58;18.10;99.90
15926;DHT22;8062;53.882;10.642;2022-08-06T07:15:02;18.30;99.90
15926;DHT22;8062;53.882;10.642;2022-08-06T07:16:05;18.50;99.90
15926;DHT22;8062;53.882;10.642;2022-08-06T07:17:07;18.80;99.90